Longueuil, Canada
Current Conditions -  °F | °C
As of 1:50 PM on Sunday 23 Nov 2014 (Local Time) from CYHU Reporting Station
Haze Haze  
Wind Chill:   Ceiling: 400
Heat Index:   Visibility: 1.7mi
Dew Point:   Wind: 6mph
Humidity: 87%   Direction: 160°SSE
Pressure: 30.04"   Gusts: NA
Location:  45.54°N, 73.49°W
Report Text: CYHU 231850Z AUTO 16005KT 1 3/4SM BR OVC004 05/03 A3004 RMK SLP172
Loading
Personal Weather Stations






























Interactive Weather Map New forecast layout! Learn more

10-Day Weather Forecast

Advertisements
Track Severe Weather on mobile